sensor_id;sensor_type;location;lat;lon;timestamp;P1;durP1;ratioP1;P2;durP2;ratioP2
12482;SDS011;6306;47.134;15.344;2024-02-14T05:08:27;3.53;;;2.90;;
12482;SDS011;6306;47.134;15.344;2024-02-14T05:11:36;3.17;;;1.97;;
12482;SDS011;6306;47.134;15.344;2024-02-14T05:14:02;25.87;;;5.37;;
12482;SDS011;6306;47.134;15.344;2024-02-14T05:16:28;3.37;;;1.90;;
12482;SDS011;6306;47.134;15.344;2024-02-14T05:19:04;5.00;;;2.53;;
12482;SDS011;6306;47.134;15.344;2024-02-14T05:21:30;4.73;;;2.97;;
12482;SDS011;6306;47.134;15.344;2024-02-14T05:23:58;3.57;;;2.30;;
12482;SDS011;6306;47.134;15.344;2024-02-14T05:26:25;3.70;;;2.53;;
12482;SDS011;6306;47.134;15.344;2024-02-14T05:28:52;18.03;;;1.70;;
12482;SDS011;6306;47.134;15.344;2024-02-14T05:34:45;4.60;;;1.63;;
12482;SDS011;6306;47.134;15.344;2024-02-14T05:37:21;5.17;;;2.90;;
12482;SDS011;6306;47.134;15.344;2024-02-14T05:44:57;12.53;;;2.27;;
12482;SDS011;6306;47.134;15.344;2024-02-14T05:47:38;8.00;;;3.43;;
12482;SDS011;6306;47.134;15.344;2024-02-14T05:50:05;3.60;;;2.27;;
12482;SDS011;6306;47.134;15.344;2024-02-14T05:58:28;4.00;;;2.63;;
12482;SDS011;6306;47.134;15.344;2024-02-14T06:01:12;3.40;;;2.43;;
12482;SDS011;6306;47.134;15.344;2024-02-14T06:03:48;7.30;;;2.33;;
12482;SDS011;6306;47.134;15.344;2024-02-14T06:06:16;16.13;;;3.40;;
12482;SDS011;6306;47.134;15.344;2024-02-14T06:17:14;4.30;;;2.77;;
12482;SDS011;6306;47.134;15.344;2024-02-14T06:19:43;5.90;;;3.03;;
12482;SDS011;6306;47.134;15.344;2024-02-14T06:22:12;4.77;;;3.70;;
12482;SDS011;6306;47.134;15.344;2024-02-14T06:24:54;5.87;;;3.40;;
12482;SDS011;6306;47.134;15.344;2024-02-14T06:27:22;14.10;;;4.17;;
12482;SDS011;6306;47.134;15.344;2024-02-14T06:29:49;3.03;;;2.80;;
12482;SDS011;6306;47.134;15.344;2024-02-14T06:40:44;4.30;;;3.87;;
12482;SDS011;6306;47.134;15.344;2024-02-14T06:43:26;5.20;;;3.37;;
12482;SDS011;6306;47.134;15.344;2024-02-14T06:48:28;3.90;;;3.50;;
12482;SDS011;6306;47.134;15.344;2024-02-14T06:59:05;8.70;;;4.70;;
12482;SDS011;6306;47.134;15.344;2024-02-14T07:07:12;8.20;;;3.53;;
12482;SDS011;6306;47.134;15.344;2024-02-14T07:10:18;6.33;;;3.83;;
12482;SDS011;6306;47.134;15.344;2024-02-14T07:12:44;19.50;;;4.23;;
12482;SDS011;6306;47.134;15.344;2024-02-14T07:15:19;9.90;;;4.90;;
12482;SDS011;6306;47.134;15.344;2024-02-14T07:17:47;13.57;;;3.50;;
12482;SDS011;6306;47.134;15.344;2024-02-14T07:20:33;3.70;;;3.37;;
12482;SDS011;6306;47.134;15.344;2024-02-14T07:23:00;6.70;;;3.63;;
12482;SDS011;6306;47.134;15.344;2024-02-14T07:25:42;17.80;;;4.67;;
12482;SDS011;6306;47.134;15.344;2024-02-14T07:28:18;9.63;;;5.70;;
12482;SDS011;6306;47.134;15.344;2024-02-14T07:30:45;6.23;;;4.90;;
12482;SDS011;6306;47.134;15.344;2024-02-14T07:33:15;8.70;;;5.97;;
12482;SDS011;6306;47.134;15.344;2024-02-14T07:35:44;6.17;;;5.33;;
12482;SDS011;6306;47.134;15.344;2024-02-14T07:38:15;11.80;;;8.10;;
12482;SDS011;6306;47.134;15.344;2024-02-14T07:40:49;18.60;;;11.10;;
12482;SDS011;6306;47.134;15.344;2024-02-14T07:43:21;22.50;;;12.33;;
12482;SDS011;6306;47.134;15.344;2024-02-14T07:45:49;17.60;;;13.57;;
12482;SDS011;6306;47.134;15.344;2024-02-14T07:48:17;17.93;;;12.17;;
12482;SDS011;6306;47.134;15.344;2024-02-14T07:50:44;16.20;;;11.30;;
12482;SDS011;6306;47.134;15.344;2024-02-14T07:53:11;17.83;;;12.87;;
12482;SDS011;6306;47.134;15.344;2024-02-14T07:55:37;22.90;;;15.70;;
12482;SDS011;6306;47.134;15.344;2024-02-14T07:58:06;23.60;;;14.90;;
12482;SDS011;6306;47.134;15.344;2024-02-14T08:00:32;21.60;;;17.60;;
12482;SDS011;6306;47.134;15.344;2024-02-14T08:03:02;22.43;;;13.13;;
12482;SDS011;6306;47.134;15.344;2024-02-14T08:05:39;18.70;;;11.40;;
12482;SDS011;6306;47.134;15.344;2024-02-14T08:08:08;23.97;;;12.07;;
12482;SDS011;6306;47.134;15.344;2024-02-14T08:10:36;17.03;;;10.27;;
12482;SDS011;6306;47.134;15.344;2024-02-14T08:13:10;14.50;;;9.03;;
12482;SDS011;6306;47.134;15.344;2024-02-14T08:15:47;14.20;;;8.90;;
12482;SDS011;6306;47.134;15.344;2024-02-14T08:20:53;7.60;;;4.40;;
12482;SDS011;6306;47.134;15.344;2024-02-14T08:23:21;4.63;;;3.40;;
12482;SDS011;6306;47.134;15.344;2024-02-14T08:28:45;6.60;;;3.80;;
12482;SDS011;6306;47.134;15.344;2024-02-14T08:31:12;7.80;;;3.67;;
12482;SDS011;6306;47.134;15.344;2024-02-14T08:33:39;3.43;;;2.20;;
12482;SDS011;6306;47.134;15.344;2024-02-14T08:36:08;3.70;;;2.57;;
12482;SDS011;6306;47.134;15.344;2024-02-14T08:38:37;2.30;;;2.10;;
12482;SDS011;6306;47.134;15.344;2024-02-14T08:41:03;2.60;;;2.23;;
12482;SDS011;6306;47.134;15.344;2024-02-14T08:46:27;5.10;;;2.47;;
12482;SDS011;6306;47.134;15.344;2024-02-14T08:48:55;4.60;;;2.07;;
12482;SDS011;6306;47.134;15.344;2024-02-14T08:51:32;8.13;;;3.83;;
12482;SDS011;6306;47.134;15.344;2024-02-14T08:54:00;6.17;;;2.50;;
12482;SDS011;6306;47.134;15.344;2024-02-14T08:56:37;4.33;;;2.47;;
12482;SDS011;6306;47.134;15.344;2024-02-14T08:59:05;2.70;;;2.20;;
12482;SDS011;6306;47.134;15.344;2024-02-14T09:01:35;2.43;;;1.73;;
12482;SDS011;6306;47.134;15.344;2024-02-14T09:04:02;6.63;;;2.77;;
12482;SDS011;6306;47.134;15.344;2024-02-14T09:06:28;3.33;;;1.80;;
12482;SDS011;6306;47.134;15.344;2024-02-14T09:08:55;12.63;;;2.80;;
12482;SDS011;6306;47.134;15.344;2024-02-14T09:11:21;3.90;;;2.33;;
12482;SDS011;6306;47.134;15.344;2024-02-14T09:13:48;4.67;;;3.20;;
12482;SDS011;6306;47.134;15.344;2024-02-14T09:19:06;9.10;;;2.57;;
12482;SDS011;6306;47.134;15.344;2024-02-14T09:21:33;5.30;;;2.43;;
12482;SDS011;6306;47.134;15.344;2024-02-14T09:24:03;5.63;;;2.17;;
12482;SDS011;6306;47.134;15.344;2024-02-14T09:26:32;7.43;;;3.13;;
12482;SDS011;6306;47.134;15.344;2024-02-14T09:29:00;6.40;;;2.03;;
12482;SDS011;6306;47.134;15.344;2024-02-14T09:31:26;5.50;;;2.67;;
12482;SDS011;6306;47.134;15.344;2024-02-14T09:33:52;3.33;;;2.67;;
12482;SDS011;6306;47.134;15.344;2024-02-14T09:36:23;5.20;;;3.33;;
12482;SDS011;6306;47.134;15.344;2024-02-14T09:38:57;13.37;;;3.10;;
12482;SDS011;6306;47.134;15.344;2024-02-14T09:41:37;7.43;;;2.77;;
12482;SDS011;6306;47.134;15.344;2024-02-14T09:44:05;4.13;;;2.53;;
12482;SDS011;6306;47.134;15.344;2024-02-14T09:46:38;5.10;;;2.70;;
12482;SDS011;6306;47.134;15.344;2024-02-14T09:49:06;4.70;;;2.63;;
12482;SDS011;6306;47.134;15.344;2024-02-14T09:54:21;4.17;;;2.53;;
12482;SDS011;6306;47.134;15.344;2024-02-14T09:56:57;2.20;;;1.80;;
12482;SDS011;6306;47.134;15.344;2024-02-14T09:59:24;3.83;;;2.13;;
12482;SDS011;6306;47.134;15.344;2024-02-14T10:01:50;5.50;;;2.30;;
12482;SDS011;6306;47.134;15.344;2024-02-14T10:04:24;3.97;;;2.03;;
12482;SDS011;6306;47.134;15.344;2024-02-14T10:06:51;4.10;;;2.23;;
12482;SDS011;6306;47.134;15.344;2024-02-14T10:09:30;5.80;;;2.87;;
12482;SDS011;6306;47.134;15.344;2024-02-14T10:12:11;6.40;;;2.53;;
12482;SDS011;6306;47.134;15.344;2024-02-14T10:14:40;13.40;;;3.30;;
12482;SDS011;6306;47.134;15.344;2024-02-14T10:17:09;6.20;;;2.47;;
12482;SDS011;6306;47.134;15.344;2024-02-14T10:20:02;6.33;;;2.63;;
12482;SDS011;6306;47.134;15.344;2024-02-14T10:22:39;2.77;;;2.00;;
12482;SDS011;6306;47.134;15.344;2024-02-14T10:25:08;7.87;;;3.00;;
12482;SDS011;6306;47.134;15.344;2024-02-14T10:27:37;3.07;;;2.50;;
12482;SDS011;6306;47.134;15.344;2024-02-14T10:30:08;9.00;;;2.87;;
12482;SDS011;6306;47.134;15.344;2024-02-14T10:35:16;2.87;;;1.97;;
12482;SDS011;6306;47.134;15.344;2024-02-14T10:37:44;3.13;;;2.27;;
12482;SDS011;6306;47.134;15.344;2024-02-14T10:40:11;4.10;;;1.87;;
12482;SDS011;6306;47.134;15.344;2024-02-14T10:42:38;3.90;;;1.47;;
12482;SDS011;6306;47.134;15.344;2024-02-14T10:45:05;3.70;;;2.20;;
12482;SDS011;6306;47.134;15.344;2024-02-14T10:47:34;2.97;;;1.77;;
12482;SDS011;6306;47.134;15.344;2024-02-14T10:50:05;1.90;;;1.70;;
12482;SDS011;6306;47.134;15.344;2024-02-14T10:57:37;10.53;;;3.03;;
12482;SDS011;6306;47.134;15.344;2024-02-14T11:00:08;3.00;;;2.00;;
12482;SDS011;6306;47.134;15.344;2024-02-14T11:02:35;1.73;;;1.63;;
12482;SDS011;6306;47.134;15.344;2024-02-14T11:07:35;11.40;;;1.67;;
12482;SDS011;6306;47.134;15.344;2024-02-14T11:12:58;4.93;;;1.43;;
12482;SDS011;6306;47.134;15.344;2024-02-14T11:18:10;1.67;;;1.53;;
12482;SDS011;6306;47.134;15.344;2024-02-14T11:20:36;4.83;;;1.27;;
12482;SDS011;6306;47.134;15.344;2024-02-14T11:26:14;2.17;;;1.10;;
12482;SDS011;6306;47.134;15.344;2024-02-14T11:29:01;1.00;;;0.80;;
12482;SDS011;6306;47.134;15.344;2024-02-14T11:31:33;5.80;;;1.20;;
12482;SDS011;6306;47.134;15.344;2024-02-14T11:34:04;1.07;;;1.07;;
12482;SDS011;6306;47.134;15.344;2024-02-14T11:39:40;3.50;;;2.37;;
12482;SDS011;6306;47.134;15.344;2024-02-14T11:42:06;4.30;;;2.00;;
12482;SDS011;6306;47.134;15.344;2024-02-14T11:44:36;4.20;;;1.77;;
12482;SDS011;6306;47.134;15.344;2024-02-14T11:47:05;6.20;;;2.10;;
12482;SDS011;6306;47.134;15.344;2024-02-14T11:49:32;2.10;;;1.33;;
12482;SDS011;6306;47.134;15.344;2024-02-14T11:52:04;6.90;;;1.67;;
12482;SDS011;6306;47.134;15.344;2024-02-14T11:54:37;3.10;;;1.37;;
12482;SDS011;6306;47.134;15.344;2024-02-14T11:57:05;7.97;;;2.20;;
12482;SDS011;6306;47.134;15.344;2024-02-14T11:59:34;3.10;;;1.50;;
12482;SDS011;6306;47.134;15.344;2024-02-14T12:02:00;3.60;;;2.03;;
12482;SDS011;6306;47.134;15.344;2024-02-14T12:04:29;3.00;;;1.77;;
12482;SDS011;6306;47.134;15.344;2024-02-14T12:06:55;8.13;;;2.63;;
12482;SDS011;6306;47.134;15.344;2024-02-14T12:09:37;3.13;;;1.43;;
12482;SDS011;6306;47.134;15.344;2024-02-14T12:12:04;2.30;;;1.90;;
12482;SDS011;6306;47.134;15.344;2024-02-14T12:14:32;3.60;;;1.87;;
12482;SDS011;6306;47.134;15.344;2024-02-14T12:17:01;7.30;;;1.20;;
12482;SDS011;6306;47.134;15.344;2024-02-14T12:19:44;4.37;;;1.70;;
12482;SDS011;6306;47.134;15.344;2024-02-14T12:22:16;4.47;;;1.27;;
12482;SDS011;6306;47.134;15.344;2024-02-14T12:24:45;2.40;;;1.37;;
12482;SDS011;6306;47.134;15.344;2024-02-14T12:27:18;2.23;;;1.20;;
12482;SDS011;6306;47.134;15.344;2024-02-14T12:29:45;1.70;;;1.40;;
12482;SDS011;6306;47.134;15.344;2024-02-14T12:32:21;1.90;;;1.40;;
12482;SDS011;6306;47.134;15.344;2024-02-14T12:34:48;5.50;;;2.17;;
12482;SDS011;6306;47.134;15.344;2024-02-14T12:37:17;6.77;;;1.53;;
12482;SDS011;6306;47.134;15.344;2024-02-14T12:39:43;2.00;;;1.30;;
12482;SDS011;6306;47.134;15.344;2024-02-14T12:45:04;1.43;;;1.13;;
12482;SDS011;6306;47.134;15.344;2024-02-14T12:47:31;4.67;;;1.60;;
12482;SDS011;6306;47.134;15.344;2024-02-14T12:50:00;2.30;;;1.30;;
12482;SDS011;6306;47.134;15.344;2024-02-14T12:52:26;4.37;;;1.50;;
12482;SDS011;6306;47.134;15.344;2024-02-14T12:54:59;5.00;;;1.63;;
12482;SDS011;6306;47.134;15.344;2024-02-14T13:15:04;2.73;;;0.97;;
12482;SDS011;6306;47.134;15.344;2024-02-14T13:17:37;1.33;;;1.20;;
12482;SDS011;6306;47.134;15.344;2024-02-14T13:25:51;4.37;;;1.80;;
12482;SDS011;6306;47.134;15.344;2024-02-14T13:28:18;2.30;;;1.37;;
12482;SDS011;6306;47.134;15.344;2024-02-14T13:30:45;8.53;;;1.70;;
12482;SDS011;6306;47.134;15.344;2024-02-14T13:33:14;2.30;;;1.63;;
12482;SDS011;6306;47.134;15.344;2024-02-14T13:50:15;5.97;;;1.30;;
12482;SDS011;6306;47.134;15.344;2024-02-14T14:00:00;1.10;;;0.93;;
12482;SDS011;6306;47.134;15.344;2024-02-14T14:24:19;2.30;;;0.83;;
12482;SDS011;6306;47.134;15.344;2024-02-14T14:38:57;1.57;;;1.10;;
12482;SDS011;6306;47.134;15.344;2024-02-14T14:43:50;2.50;;;0.90;;
12482;SDS011;6306;47.134;15.344;2024-02-14T14:46:16;3.07;;;0.80;;
12482;SDS011;6306;47.134;15.344;2024-02-14T14:48:42;4.17;;;1.10;;
12482;SDS011;6306;47.134;15.344;2024-02-14T15:17:54;7.00;;;1.80;;
12482;SDS011;6306;47.134;15.344;2024-02-14T15:25:12;1.40;;;1.03;;
12482;SDS011;6306;47.134;15.344;2024-02-14T15:30:04;1.53;;;1.43;;
12482;SDS011;6306;47.134;15.344;2024-02-14T15:37:41;2.40;;;0.90;;
12482;SDS011;6306;47.134;15.344;2024-02-14T15:49:54;9.63;;;3.90;;
12482;SDS011;6306;47.134;15.344;2024-02-14T15:54:47;5.97;;;2.83;;
12482;SDS011;6306;47.134;15.344;2024-02-14T16:21:33;6.43;;;2.57;;
12482;SDS011;6306;47.134;15.344;2024-02-14T16:24:00;3.73;;;2.73;;
12482;SDS011;6306;47.134;15.344;2024-02-14T16:50:46;3.67;;;3.00;;
12482;SDS011;6306;47.134;15.344;2024-02-14T17:24:50;4.20;;;2.87;;
12482;SDS011;6306;47.134;15.344;2024-02-14T17:49:13;4.33;;;2.97;;
12482;SDS011;6306;47.134;15.344;2024-02-14T18:40:19;4.30;;;3.23;;
12482;SDS011;6306;47.134;15.344;2024-02-14T18:50:05;5.27;;;3.60;;
12482;SDS011;6306;47.134;15.344;2024-02-14T19:24:10;9.83;;;6.93;;
12482;SDS011;6306;47.134;15.344;2024-02-14T20:24:59;6.73;;;4.43;;
12482;SDS011;6306;47.134;15.344;2024-02-14T20:49:18;5.07;;;3.83;;
12482;SDS011;6306;47.134;15.344;2024-02-14T21:11:11;8.23;;;4.17;;
12482;SDS011;6306;47.134;15.344;2024-02-14T21:33:05;6.20;;;4.97;;
12482;SDS011;6306;47.134;15.344;2024-02-14T21:50:07;9.20;;;6.13;;
12482;SDS011;6306;47.134;15.344;2024-02-14T22:24:11;12.57;;;6.33;;
12482;SDS011;6306;47.134;15.344;2024-02-14T23:22:33;11.03;;;5.10;;
12482;SDS011;6306;47.134;15.344;2024-02-14T23:25:01;8.00;;;4.17;;
12482;SDS011;6306;47.134;15.344;2024-02-14T23:49:21;5.83;;;3.67;;
